sensor_id;sensor_type;location;lat;lon;timestamp;pressure;altitude;pressure_sealevel;temperature;humidity
28626;BME280;18905;42.668;23.364;2022-12-18T00:02:20;95831.94;;;6.66;100.00
28626;BME280;18905;42.668;23.364;2022-12-18T00:04:47;95848.56;;;6.63;100.00
28626;BME280;18905;42.668;23.364;2022-12-18T00:07:12;95859.28;;;6.68;100.00
28626;BME280;18905;42.668;23.364;2022-12-18T00:09:38;95857.31;;;6.88;100.00
28626;BME280;18905;42.668;23.364;2022-12-18T00:12:03;95863.53;;;6.74;100.00
28626;BME280;18905;42.668;23.364;2022-12-18T00:14:29;95864.13;;;6.66;100.00
28626;BME280;18905;42.668;23.364;2022-12-18T00:16:54;95856.88;;;6.61;100.00
28626;BME280;18905;42.668;23.364;2022-12-18T00:19:20;95849.44;;;6.38;100.00
28626;BME280;18905;42.668;23.364;2022-12-18T00:21:45;95867.31;;;6.68;100.00
28626;BME280;18905;42.668;23.364;2022-12-18T00:24:11;95876.03;;;6.35;100.00
28626;BME280;18905;42.668;23.364;2022-12-18T00:26:38;95884.06;;;6.40;100.00
28626;BME280;18905;42.668;23.364;2022-12-18T00:29:11;95880.22;;;6.61;100.00
28626;BME280;18905;42.668;23.364;2022-12-18T00:31:40;95885.34;;;6.57;100.00
28626;BME280;18905;42.668;23.364;2022-12-18T00:34:05;95895.56;;;6.55;100.00
28626;BME280;18905;42.668;23.364;2022-12-18T00:36:33;95889.38;;;6.50;100.00
28626;BME280;18905;42.668;23.364;2022-12-18T00:39:01;95876.81;;;6.30;100.00
28626;BME280;18905;42.668;23.364;2022-12-18T00:41:28;95887.22;;;6.57;100.00
28626;BME280;18905;42.668;23.364;2022-12-18T00:44:14;95888.88;;;6.33;100.00
28626;BME280;18905;42.668;23.364;2022-12-18T00:46:40;95883.50;;;6.38;100.00
28626;BME280;18905;42.668;23.364;2022-12-18T00:49:06;95882.94;;;6.46;100.00
28626;BME280;18905;42.668;23.364;2022-12-18T00:51:32;95864.81;;;6.03;100.00
28626;BME280;18905;42.668;23.364;2022-12-18T00:53:57;95901.81;;;6.11;100.00
28626;BME280;18905;42.668;23.364;2022-12-18T00:56:23;95905.84;;;6.08;100.00
28626;BME280;18905;42.668;23.364;2022-12-18T00:58:48;95911.97;;;6.19;100.00
28626;BME280;18905;42.668;23.364;2022-12-18T01:01:14;95903.66;;;6.25;100.00
28626;BME280;18905;42.668;23.364;2022-12-18T01:03:39;95889.72;;;6.03;100.00
28626;BME280;18905;42.668;23.364;2022-12-18T01:06:07;95894.28;;;5.83;100.00
28626;BME280;18905;42.668;23.364;2022-12-18T01:08:33;95887.88;;;5.79;100.00
28626;BME280;18905;42.668;23.364;2022-12-18T01:10:58;95905.00;;;5.78;100.00
28626;BME280;18905;42.668;23.364;2022-12-18T01:13:24;95914.16;;;6.02;100.00
28626;BME280;18905;42.668;23.364;2022-12-18T01:15:50;95925.94;;;5.96;100.00
28626;BME280;18905;42.668;23.364;2022-12-18T01:18:16;95915.19;;;5.56;100.00
28626;BME280;18905;42.668;23.364;2022-12-18T01:20:41;95924.06;;;5.86;100.00
28626;BME280;18905;42.668;23.364;2022-12-18T01:23:07;95911.44;;;5.87;100.00
28626;BME280;18905;42.668;23.364;2022-12-18T01:25:32;95916.03;;;5.81;100.00
28626;BME280;18905;42.668;23.364;2022-12-18T01:27:57;95927.50;;;5.67;100.00
28626;BME280;18905;42.668;23.364;2022-12-18T01:30:23;95902.03;;;5.54;100.00
28626;BME280;18905;42.668;23.364;2022-12-18T01:32:48;95899.63;;;5.48;100.00
28626;BME280;18905;42.668;23.364;2022-12-18T01:35:14;95910.59;;;5.66;100.00
28626;BME280;18905;42.668;23.364;2022-12-18T01:37:39;95925.91;;;5.71;100.00
28626;BME280;18905;42.668;23.364;2022-12-18T01:40:05;95909.25;;;5.54;100.00
28626;BME280;18905;42.668;23.364;2022-12-18T01:42:31;95936.06;;;5.64;100.00
28626;BME280;18905;42.668;23.364;2022-12-18T01:50:09;95929.09;;;5.58;100.00
28626;BME280;18905;42.668;23.364;2022-12-18T01:52:35;95937.13;;;5.43;100.00
28626;BME280;18905;42.668;23.364;2022-12-18T01:55:04;95944.91;;;5.54;100.00
28626;BME280;18905;42.668;23.364;2022-12-18T01:57:30;95943.81;;;5.45;100.00
28626;BME280;18905;42.668;23.364;2022-12-18T02:00:00;95925.59;;;5.52;100.00
28626;BME280;18905;42.668;23.364;2022-12-18T02:02:28;95955.38;;;5.56;100.00
28626;BME280;18905;42.668;23.364;2022-12-18T02:04:54;95953.47;;;5.51;100.00
28626;BME280;18905;42.668;23.364;2022-12-18T02:12:49;95945.63;;;5.25;100.00
28626;BME280;18905;42.668;23.364;2022-12-18T02:15:26;95954.38;;;4.95;100.00
28626;BME280;18905;42.668;23.364;2022-12-18T02:17:58;95957.06;;;5.00;100.00
28626;BME280;18905;42.668;23.364;2022-12-18T02:26:26;95971.28;;;5.11;100.00
28626;BME280;18905;42.668;23.364;2022-12-18T02:29:08;95965.09;;;5.00;100.00
28626;BME280;18905;42.668;23.364;2022-12-18T02:31:39;95969.63;;;5.00;100.00
28626;BME280;18905;42.668;23.364;2022-12-18T02:34:08;95974.84;;;5.26;100.00
28626;BME280;18905;42.668;23.364;2022-12-18T02:36:36;95972.94;;;5.32;100.00
28626;BME280;18905;42.668;23.364;2022-12-18T02:39:05;95967.75;;;4.95;100.00
28626;BME280;18905;42.668;23.364;2022-12-18T02:41:32;95976.97;;;4.73;100.00
28626;BME280;18905;42.668;23.364;2022-12-18T02:44:06;95987.28;;;5.01;100.00
28626;BME280;18905;42.668;23.364;2022-12-18T02:46:32;95992.47;;;5.17;100.00
28626;BME280;18905;42.668;23.364;2022-12-18T02:49:10;95971.41;;;4.84;100.00
28626;BME280;18905;42.668;23.364;2022-12-18T02:57:16;95987.59;;;5.04;100.00
28626;BME280;18905;42.668;23.364;2022-12-18T03:00:12;95993.72;;;5.05;100.00
28626;BME280;18905;42.668;23.364;2022-12-18T03:02:39;95995.47;;;4.79;100.00
28626;BME280;18905;42.668;23.364;2022-12-18T03:05:22;96009.25;;;4.98;100.00
28626;BME280;18905;42.668;23.364;2022-12-18T03:07:55;96009.97;;;4.88;100.00
28626;BME280;18905;42.668;23.364;2022-12-18T03:10:29;96008.31;;;4.77;100.00
28626;BME280;18905;42.668;23.364;2022-12-18T03:13:02;96009.44;;;4.86;100.00
28626;BME280;18905;42.668;23.364;2022-12-18T03:15:37;96009.78;;;5.00;100.00
28626;BME280;18905;42.668;23.364;2022-12-18T03:18:17;96014.13;;;5.11;100.00
28626;BME280;18905;42.668;23.364;2022-12-18T03:20:45;96002.06;;;5.03;100.00
28626;BME280;18905;42.668;23.364;2022-12-18T03:23:16;96013.56;;;5.09;100.00
28626;BME280;18905;42.668;23.364;2022-12-18T03:25:44;96004.63;;;4.88;100.00
28626;BME280;18905;42.668;23.364;2022-12-18T03:28:13;96019.25;;;4.71;100.00
28626;BME280;18905;42.668;23.364;2022-12-18T03:30:41;96024.44;;;4.87;100.00
28626;BME280;18905;42.668;23.364;2022-12-18T03:33:30;96026.19;;;4.67;100.00
28626;BME280;18905;42.668;23.364;2022-12-18T03:35:57;96024.69;;;4.44;100.00
28626;BME280;18905;42.668;23.364;2022-12-18T03:38:23;96020.09;;;4.40;100.00
28626;BME280;18905;42.668;23.364;2022-12-18T03:45:55;96038.81;;;4.40;100.00
28626;BME280;18905;42.668;23.364;2022-12-18T03:48:42;96038.34;;;4.48;100.00
28626;BME280;18905;42.668;23.364;2022-12-18T03:51:14;96038.03;;;4.39;100.00
28626;BME280;18905;42.668;23.364;2022-12-18T03:56:22;96063.00;;;4.55;100.00
28626;BME280;18905;42.668;23.364;2022-12-18T03:58:50;96043.75;;;4.53;100.00
28626;BME280;18905;42.668;23.364;2022-12-18T04:01:18;96065.28;;;4.73;100.00
28626;BME280;18905;42.668;23.364;2022-12-18T04:03:47;96063.59;;;4.62;100.00
28626;BME280;18905;42.668;23.364;2022-12-18T04:06:15;96065.06;;;4.43;100.00
28626;BME280;18905;42.668;23.364;2022-12-18T04:08:42;96041.78;;;4.43;100.00
28626;BME280;18905;42.668;23.364;2022-12-18T04:11:08;96075.63;;;4.59;100.00
28626;BME280;18905;42.668;23.364;2022-12-18T04:13:37;96060.66;;;4.63;100.00
28626;BME280;18905;42.668;23.364;2022-12-18T04:16:03;96059.06;;;4.62;100.00
28626;BME280;18905;42.668;23.364;2022-12-18T04:18:29;96082.91;;;4.69;100.00
28626;BME280;18905;42.668;23.364;2022-12-18T04:20:54;96071.00;;;4.50;100.00
28626;BME280;18905;42.668;23.364;2022-12-18T04:23:19;96076.38;;;4.55;100.00
28626;BME280;18905;42.668;23.364;2022-12-18T04:25:46;96085.06;;;4.72;100.00
28626;BME280;18905;42.668;23.364;2022-12-18T04:28:12;96084.44;;;4.96;100.00
28626;BME280;18905;42.668;23.364;2022-12-18T04:30:37;96088.25;;;4.69;100.00
28626;BME280;18905;42.668;23.364;2022-12-18T04:33:03;96075.84;;;4.53;100.00
28626;BME280;18905;42.668;23.364;2022-12-18T04:35:28;96094.03;;;4.51;100.00
28626;BME280;18905;42.668;23.364;2022-12-18T04:37:54;96094.88;;;4.61;100.00
28626;BME280;18905;42.668;23.364;2022-12-18T04:40:19;96095.34;;;4.48;100.00
28626;BME280;18905;42.668;23.364;2022-12-18T04:42:44;96081.81;;;4.33;100.00
28626;BME280;18905;42.668;23.364;2022-12-18T04:45:10;96101.59;;;4.64;100.00
28626;BME280;18905;42.668;23.364;2022-12-18T04:47:35;96100.16;;;4.51;100.00
28626;BME280;18905;42.668;23.364;2022-12-18T04:50:01;96111.63;;;4.47;100.00
28626;BME280;18905;42.668;23.364;2022-12-18T04:52:26;96122.50;;;4.35;100.00
28626;BME280;18905;42.668;23.364;2022-12-18T04:54:52;96106.34;;;4.25;100.00
28626;BME280;18905;42.668;23.364;2022-12-18T04:57:17;96120.31;;;4.64;100.00
28626;BME280;18905;42.668;23.364;2022-12-18T04:59:46;96128.91;;;4.66;100.00
28626;BME280;18905;42.668;23.364;2022-12-18T05:02:11;96113.75;;;4.45;100.00
28626;BME280;18905;42.668;23.364;2022-12-18T05:04:36;96117.94;;;4.36;100.00
28626;BME280;18905;42.668;23.364;2022-12-18T05:07:02;96126.22;;;4.34;100.00
28626;BME280;18905;42.668;23.364;2022-12-18T05:09:27;96135.50;;;4.27;100.00
28626;BME280;18905;42.668;23.364;2022-12-18T05:11:53;96138.06;;;4.43;100.00
28626;BME280;18905;42.668;23.364;2022-12-18T05:14:19;96117.91;;;4.31;100.00
28626;BME280;18905;42.668;23.364;2022-12-18T05:16:44;96150.03;;;4.62;100.00
28626;BME280;18905;42.668;23.364;2022-12-18T05:19:10;96156.00;;;4.43;100.00
28626;BME280;18905;42.668;23.364;2022-12-18T05:21:35;96146.25;;;4.32;100.00
28626;BME280;18905;42.668;23.364;2022-12-18T05:24:00;96172.47;;;4.35;100.00
28626;BME280;18905;42.668;23.364;2022-12-18T05:26:26;96177.94;;;4.18;100.00
28626;BME280;18905;42.668;23.364;2022-12-18T05:28:51;96164.66;;;4.02;100.00
28626;BME280;18905;42.668;23.364;2022-12-18T05:31:17;96182.66;;;4.11;100.00
28626;BME280;18905;42.668;23.364;2022-12-18T05:33:42;96169.47;;;4.05;100.00
28626;BME280;18905;42.668;23.364;2022-12-18T05:36:09;96188.94;;;4.00;100.00
28626;BME280;18905;42.668;23.364;2022-12-18T05:38:36;96185.28;;;4.06;100.00
28626;BME280;18905;42.668;23.364;2022-12-18T05:41:03;96182.78;;;4.00;100.00
28626;BME280;18905;42.668;23.364;2022-12-18T05:43:28;96187.06;;;4.22;100.00
28626;BME280;18905;42.668;23.364;2022-12-18T05:45:54;96192.03;;;4.14;100.00
28626;BME280;18905;42.668;23.364;2022-12-18T05:48:20;96173.94;;;3.94;100.00
28626;BME280;18905;42.668;23.364;2022-12-18T05:50:47;96191.88;;;4.25;100.00
28626;BME280;18905;42.668;23.364;2022-12-18T05:53:15;96188.88;;;4.17;100.00
28626;BME280;18905;42.668;23.364;2022-12-18T05:55:41;96194.91;;;3.86;100.00
28626;BME280;18905;42.668;23.364;2022-12-18T05:58:09;96191.97;;;4.09;100.00
28626;BME280;18905;42.668;23.364;2022-12-18T06:00:36;96197.13;;;4.15;100.00
28626;BME280;18905;42.668;23.364;2022-12-18T06:03:05;96204.03;;;4.33;100.00
28626;BME280;18905;42.668;23.364;2022-12-18T06:05:38;96173.00;;;3.84;100.00
28626;BME280;18905;42.668;23.364;2022-12-18T06:08:04;96201.56;;;4.05;100.00
28626;BME280;18905;42.668;23.364;2022-12-18T06:10:29;96208.88;;;4.14;100.00
28626;BME280;18905;42.668;23.364;2022-12-18T06:12:55;96219.47;;;4.04;100.00
28626;BME280;18905;42.668;23.364;2022-12-18T06:15:20;96194.56;;;3.77;100.00
28626;BME280;18905;42.668;23.364;2022-12-18T06:17:46;96209.28;;;3.80;100.00
28626;BME280;18905;42.668;23.364;2022-12-18T06:20:11;96205.34;;;3.87;100.00
28626;BME280;18905;42.668;23.364;2022-12-18T06:22:36;96208.47;;;3.79;100.00
28626;BME280;18905;42.668;23.364;2022-12-18T06:25:02;96228.69;;;3.92;100.00
28626;BME280;18905;42.668;23.364;2022-12-18T06:27:28;96215.03;;;3.93;100.00
28626;BME280;18905;42.668;23.364;2022-12-18T06:29:53;96226.72;;;3.87;100.00
28626;BME280;18905;42.668;23.364;2022-12-18T06:32:19;96228.78;;;4.02;100.00
28626;BME280;18905;42.668;23.364;2022-12-18T06:34:45;96237.88;;;4.01;100.00
28626;BME280;18905;42.668;23.364;2022-12-18T06:37:10;96240.91;;;3.88;100.00
28626;BME280;18905;42.668;23.364;2022-12-18T06:39:35;96237.25;;;3.94;100.00
28626;BME280;18905;42.668;23.364;2022-12-18T06:42:01;96242.34;;;3.95;100.00
28626;BME280;18905;42.668;23.364;2022-12-18T06:44:26;96237.78;;;3.74;100.00
28626;BME280;18905;42.668;23.364;2022-12-18T06:46:52;96254.63;;;4.18;100.00
28626;BME280;18905;42.668;23.364;2022-12-18T06:49:17;96256.19;;;4.14;100.00
28626;BME280;18905;42.668;23.364;2022-12-18T06:51:42;96242.22;;;4.07;100.00
28626;BME280;18905;42.668;23.364;2022-12-18T06:54:08;96248.09;;;4.09;100.00
28626;BME280;18905;42.668;23.364;2022-12-18T06:56:34;96249.53;;;3.95;100.00
28626;BME280;18905;42.668;23.364;2022-12-18T06:59:00;96262.22;;;4.26;100.00
28626;BME280;18905;42.668;23.364;2022-12-18T07:01:25;96266.13;;;4.40;100.00
28626;BME280;18905;42.668;23.364;2022-12-18T07:03:52;96266.75;;;4.25;100.00
28626;BME280;18905;42.668;23.364;2022-12-18T07:06:20;96271.72;;;4.17;100.00
28626;BME280;18905;42.668;23.364;2022-12-18T07:08:46;96278.44;;;4.19;100.00
28626;BME280;18905;42.668;23.364;2022-12-18T07:11:12;96266.75;;;4.25;100.00
28626;BME280;18905;42.668;23.364;2022-12-18T07:13:38;96275.09;;;4.29;100.00
28626;BME280;18905;42.668;23.364;2022-12-18T07:18:36;96274.09;;;4.35;100.00
28626;BME280;18905;42.668;23.364;2022-12-18T07:21:06;96274.00;;;4.51;100.00
28626;BME280;18905;42.668;23.364;2022-12-18T07:23:34;96263.53;;;4.23;100.00
28626;BME280;18905;42.668;23.364;2022-12-18T07:26:08;96282.50;;;4.22;100.00
28626;BME280;18905;42.668;23.364;2022-12-18T07:28:36;96286.03;;;4.27;100.00
28626;BME280;18905;42.668;23.364;2022-12-18T07:31:06;96276.97;;;4.28;100.00
28626;BME280;18905;42.668;23.364;2022-12-18T07:33:33;96285.84;;;4.34;100.00
28626;BME280;18905;42.668;23.364;2022-12-18T07:36:02;96284.34;;;4.00;100.00
28626;BME280;18905;42.668;23.364;2022-12-18T07:38:29;96270.47;;;4.24;100.00
28626;BME280;18905;42.668;23.364;2022-12-18T07:40:54;96298.47;;;4.17;100.00
28626;BME280;18905;42.668;23.364;2022-12-18T07:43:25;96293.69;;;4.19;100.00
28626;BME280;18905;42.668;23.364;2022-12-18T07:45:50;96310.59;;;4.03;100.00
28626;BME280;18905;42.668;23.364;2022-12-18T07:48:15;96314.13;;;4.08;100.00
28626;BME280;18905;42.668;23.364;2022-12-18T07:50:41;96313.00;;;4.04;100.00
28626;BME280;18905;42.668;23.364;2022-12-18T07:53:06;96299.28;;;3.96;100.00
28626;BME280;18905;42.668;23.364;2022-12-18T07:55:32;96291.50;;;3.94;100.00
28626;BME280;18905;42.668;23.364;2022-12-18T07:58:00;96305.00;;;4.04;100.00
28626;BME280;18905;42.668;23.364;2022-12-18T08:00:26;96318.06;;;4.01;100.00
28626;BME280;18905;42.668;23.364;2022-12-18T08:02:52;96319.47;;;4.08;100.00
28626;BME280;18905;42.668;23.364;2022-12-18T08:05:17;96330.22;;;3.92;100.00
28626;BME280;18905;42.668;23.364;2022-12-18T08:07:42;96302.06;;;3.84;100.00
28626;BME280;18905;42.668;23.364;2022-12-18T08:10:08;96328.06;;;3.72;100.00
28626;BME280;18905;42.668;23.364;2022-12-18T08:12:35;96329.94;;;3.93;100.00
28626;BME280;18905;42.668;23.364;2022-12-18T08:15:00;96320.31;;;3.54;100.00
28626;BME280;18905;42.668;23.364;2022-12-18T08:17:25;96341.53;;;3.99;100.00
28626;BME280;18905;42.668;23.364;2022-12-18T08:19:51;96358.78;;;3.91;100.00
28626;BME280;18905;42.668;23.364;2022-12-18T08:22:16;96361.00;;;3.78;100.00
28626;BME280;18905;42.668;23.364;2022-12-18T08:24:42;96338.09;;;3.65;100.00
28626;BME280;18905;42.668;23.364;2022-12-18T08:27:07;96366.66;;;3.81;100.00
28626;BME280;18905;42.668;23.364;2022-12-18T08:29:33;96354.94;;;3.66;100.00
28626;BME280;18905;42.668;23.364;2022-12-18T08:31:58;96366.81;;;3.75;100.00
28626;BME280;18905;42.668;23.364;2022-12-18T08:34:24;96362.13;;;3.98;100.00
28626;BME280;18905;42.668;23.364;2022-12-18T08:36:49;96370.31;;;3.92;100.00
28626;BME280;18905;42.668;23.364;2022-12-18T08:39:15;96369.47;;;3.91;100.00
28626;BME280;18905;42.668;23.364;2022-12-18T08:41:40;96372.97;;;3.92;100.00
28626;BME280;18905;42.668;23.364;2022-12-18T08:44:07;96360.41;;;3.92;100.00
28626;BME280;18905;42.668;23.364;2022-12-18T08:46:51;96366.84;;;4.13;100.00
28626;BME280;18905;42.668;23.364;2022-12-18T08:49:17;96378.53;;;4.07;100.00
28626;BME280;18905;42.668;23.364;2022-12-18T08:51:43;96373.41;;;3.67;100.00
28626;BME280;18905;42.668;23.364;2022-12-18T08:54:11;96389.41;;;3.84;100.00
28626;BME280;18905;42.668;23.364;2022-12-18T08:56:38;96372.81;;;3.82;100.00
28626;BME280;18905;42.668;23.364;2022-12-18T08:59:04;96375.75;;;3.64;100.00
28626;BME280;18905;42.668;23.364;2022-12-18T09:01:29;96378.13;;;3.82;100.00
28626;BME280;18905;42.668;23.364;2022-12-18T09:03:55;96376.50;;;3.97;100.00
28626;BME280;18905;42.668;23.364;2022-12-18T09:06:21;96369.78;;;3.95;100.00
28626;BME280;18905;42.668;23.364;2022-12-18T09:08:47;96373.72;;;4.09;100.00
28626;BME280;18905;42.668;23.364;2022-12-18T09:11:22;96376.50;;;3.97;100.00
28626;BME280;18905;42.668;23.364;2022-12-18T09:13:48;96373.13;;;4.02;100.00
28626;BME280;18905;42.668;23.364;2022-12-18T09:16:13;96373.75;;;3.92;100.00
28626;BME280;18905;42.668;23.364;2022-12-18T09:18:39;96342.31;;;3.78;100.00
28626;BME280;18905;42.668;23.364;2022-12-18T09:21:09;96363.66;;;3.94;100.00
28626;BME280;18905;42.668;23.364;2022-12-18T09:23:35;96344.72;;;3.63;100.00
28626;BME280;18905;42.668;23.364;2022-12-18T09:26:00;96379.19;;;3.81;100.00
28626;BME280;18905;42.668;23.364;2022-12-18T09:28:26;96365.44;;;3.89;100.00
28626;BME280;18905;42.668;23.364;2022-12-18T09:30:52;96362.13;;;3.98;100.00
28626;BME280;18905;42.668;23.364;2022-12-18T09:33:17;96365.44;;;3.89;100.00
28626;BME280;18905;42.668;23.364;2022-12-18T09:35:44;96375.63;;;4.08;100.00
28626;BME280;18905;42.668;23.364;2022-12-18T09:38:13;96364.81;;;4.20;100.00
28626;BME280;18905;42.668;23.364;2022-12-18T09:40:48;96370.16;;;4.20;100.00
28626;BME280;18905;42.668;23.364;2022-12-18T09:43:18;96375.63;;;4.30;100.00
28626;BME280;18905;42.668;23.364;2022-12-18T09:45:49;96378.50;;;4.45;100.00
28626;BME280;18905;42.668;23.364;2022-12-18T09:48:25;96379.25;;;4.19;100.00
28626;BME280;18905;42.668;23.364;2022-12-18T09:50:57;96377.25;;;4.52;100.00
28626;BME280;18905;42.668;23.364;2022-12-18T09:53:27;96381.06;;;4.35;100.00
28626;BME280;18905;42.668;23.364;2022-12-18T09:55:56;96361.84;;;4.38;100.00
28626;BME280;18905;42.668;23.364;2022-12-18T10:00:52;96370.09;;;4.15;100.00
28626;BME280;18905;42.668;23.364;2022-12-18T10:03:18;96365.44;;;4.27;100.00
28626;BME280;18905;42.668;23.364;2022-12-18T10:09:20;96373.41;;;4.43;100.00
28626;BME280;18905;42.668;23.364;2022-12-18T10:12:30;96358.41;;;4.64;100.00
28626;BME280;18905;42.668;23.364;2022-12-18T10:20:27;96371.78;;;4.64;100.00
28626;BME280;18905;42.668;23.364;2022-12-18T10:25:28;96379.38;;;4.72;100.00
28626;BME280;18905;42.668;23.364;2022-12-18T10:28:09;96386.78;;;4.86;100.00
28626;BME280;18905;42.668;23.364;2022-12-18T10:30:38;96387.38;;;4.93;100.00
28626;BME280;18905;42.668;23.364;2022-12-18T10:33:04;96384.13;;;4.86;100.00
28626;BME280;18905;42.668;23.364;2022-12-18T10:35:29;96359.44;;;5.06;100.00
28626;BME280;18905;42.668;23.364;2022-12-18T10:40:58;96371.78;;;5.38;100.00
28626;BME280;18905;42.668;23.364;2022-12-18T10:43:27;96368.91;;;5.45;100.00
28626;BME280;18905;42.668;23.364;2022-12-18T10:46:20;96372.34;;;4.87;100.00
28626;BME280;18905;42.668;23.364;2022-12-18T10:48:55;96361.09;;;5.12;100.00
28626;BME280;18905;42.668;23.364;2022-12-18T10:51:30;96372.19;;;4.99;100.00
28626;BME280;18905;42.668;23.364;2022-12-18T10:56:28;96366.78;;;5.20;100.00
28626;BME280;18905;42.668;23.364;2022-12-18T10:59:04;96373.66;;;5.11;100.00
28626;BME280;18905;42.668;23.364;2022-12-18T11:04:32;96370.00;;;4.96;100.00
28626;BME280;18905;42.668;23.364;2022-12-18T11:07:05;96361.84;;;5.07;100.00
28626;BME280;18905;42.668;23.364;2022-12-18T11:09:36;96372.63;;;4.91;100.00
28626;BME280;18905;42.668;23.364;2022-12-18T11:12:05;96375.31;;;5.12;100.00
28626;BME280;18905;42.668;23.364;2022-12-18T11:14:43;96374.97;;;5.09;100.00
28626;BME280;18905;42.668;23.364;2022-12-18T11:17:28;96367.75;;;4.83;100.00
28626;BME280;18905;42.668;23.364;2022-12-18T11:20:34;96370.00;;;4.96;100.00
28626;BME280;18905;42.668;23.364;2022-12-18T11:23:03;96375.59;;;5.16;100.00
28626;BME280;18905;42.668;23.364;2022-12-18T11:25:30;96367.91;;;4.98;100.00
28626;BME280;18905;42.668;23.364;2022-12-18T11:28:04;96375.00;;;4.87;100.00
28626;BME280;18905;42.668;23.364;2022-12-18T11:30:34;96372.16;;;4.94;100.00
28626;BME280;18905;42.668;23.364;2022-12-18T11:33:21;96373.66;;;4.85;100.00
28626;BME280;18905;42.668;23.364;2022-12-18T11:35:52;96369.38;;;5.10;100.00
28626;BME280;18905;42.668;23.364;2022-12-18T11:38:39;96377.13;;;5.07;100.00
28626;BME280;18905;42.668;23.364;2022-12-18T11:41:16;96377.25;;;5.22;100.00
28626;BME280;18905;42.668;23.364;2022-12-18T11:43:51;96379.63;;;4.92;100.00
28626;BME280;18905;42.668;23.364;2022-12-18T11:46:34;96380.22;;;5.25;100.00
28626;BME280;18905;42.668;23.364;2022-12-18T11:51:51;96381.19;;;5.41;100.00
28626;BME280;18905;42.668;23.364;2022-12-18T11:54:18;96354.53;;;4.98;100.00
28626;BME280;18905;42.668;23.364;2022-12-18T11:56:51;96362.88;;;5.33;100.00
28626;BME280;18905;42.668;23.364;2022-12-18T12:02:17;96368.63;;;5.15;100.00
28626;BME280;18905;42.668;23.364;2022-12-18T12:18:54;96377.91;;;5.07;100.00
28626;BME280;18905;42.668;23.364;2022-12-18T12:21:28;96384.91;;;5.08;100.00
28626;BME280;18905;42.668;23.364;2022-12-18T12:26:59;96385.16;;;5.07;100.00
28626;BME280;18905;42.668;23.364;2022-12-18T12:29:29;96383.25;;;5.07;100.00
28626;BME280;18905;42.668;23.364;2022-12-18T12:34:57;96383.78;;;5.04;100.00
28626;BME280;18905;42.668;23.364;2022-12-18T12:40:00;96399.84;;;5.04;100.00
28626;BME280;18905;42.668;23.364;2022-12-18T12:42:32;96372.97;;;4.73;100.00
28626;BME280;18905;42.668;23.364;2022-12-18T12:46:02;96385.88;;;5.02;100.00
28626;BME280;18905;42.668;23.364;2022-12-18T12:48:46;96387.09;;;5.16;100.00
28626;BME280;18905;42.668;23.364;2022-12-18T12:51:16;96387.72;;;5.23;100.00
28626;BME280;18905;42.668;23.364;2022-12-18T12:53:42;96397.25;;;5.41;100.00
28626;BME280;18905;42.668;23.364;2022-12-18T12:56:10;96397.41;;;5.56;100.00
28626;BME280;18905;42.668;23.364;2022-12-18T12:58:46;96398.16;;;5.51;100.00
28626;BME280;18905;42.668;23.364;2022-12-18T13:01:40;96408.31;;;5.76;100.00
28626;BME280;18905;42.668;23.364;2022-12-18T13:04:21;96405.63;;;5.76;100.00
28626;BME280;18905;42.668;23.364;2022-12-18T13:07:10;96409.19;;;5.81;100.00
28626;BME280;18905;42.668;23.364;2022-12-18T13:10:11;96414.69;;;6.01;100.00
28626;BME280;18905;42.668;23.364;2022-12-18T13:12:52;96418.03;;;5.82;100.00
28626;BME280;18905;42.668;23.364;2022-12-18T13:16:08;96419.41;;;5.58;100.00
28626;BME280;18905;42.668;23.364;2022-12-18T13:20:36;96407.38;;;5.34;100.00
28626;BME280;18905;42.668;23.364;2022-12-18T13:34:24;96427.81;;;4.92;100.00
28626;BME280;18905;42.668;23.364;2022-12-18T13:36:52;96432.25;;;5.08;100.00
28626;BME280;18905;42.668;23.364;2022-12-18T13:41:45;96419.75;;;5.40;100.00
28626;BME280;18905;42.668;23.364;2022-12-18T13:46:50;96442.69;;;5.31;100.00
28626;BME280;18905;42.668;23.364;2022-12-18T13:49:20;96444.78;;;5.24;100.00
28626;BME280;18905;42.668;23.364;2022-12-18T13:51:52;96435.16;;;4.80;100.00
28626;BME280;18905;42.668;23.364;2022-12-18T13:54:39;96454.38;;;5.20;100.00
28626;BME280;18905;42.668;23.364;2022-12-18T13:59:51;96442.47;;;5.11;100.00
28626;BME280;18905;42.668;23.364;2022-12-18T14:02:21;96462.41;;;4.98;100.00
28626;BME280;18905;42.668;23.364;2022-12-18T14:04:48;96468.44;;;4.89;100.00
28626;BME280;18905;42.668;23.364;2022-12-18T14:07:27;96464.34;;;4.81;100.00
28626;BME280;18905;42.668;23.364;2022-12-18T14:09:58;96452.88;;;4.86;100.00
28626;BME280;18905;42.668;23.364;2022-12-18T14:12:28;96464.09;;;4.83;100.00
28626;BME280;18905;42.668;23.364;2022-12-18T14:15:34;96469.25;;;5.11;100.00
28626;BME280;18905;42.668;23.364;2022-12-18T14:20:34;96470.56;;;5.08;100.00
28626;BME280;18905;42.668;23.364;2022-12-18T14:23:00;96473.91;;;4.99;100.00
28626;BME280;18905;42.668;23.364;2022-12-18T14:25:26;96476.00;;;4.92;100.00
28626;BME280;18905;42.668;23.364;2022-12-18T14:30:40;96471.53;;;5.02;100.00
28626;BME280;18905;42.668;23.364;2022-12-18T14:33:19;96475.34;;;4.63;100.00
28626;BME280;18905;42.668;23.364;2022-12-18T14:41:26;96478.44;;;4.77;100.00
28626;BME280;18905;42.668;23.364;2022-12-18T14:43:53;96466.78;;;4.83;100.00
28626;BME280;18905;42.668;23.364;2022-12-18T14:46:35;96474.22;;;4.81;100.00
28626;BME280;18905;42.668;23.364;2022-12-18T14:49:17;96469.16;;;4.63;100.00
28626;BME280;18905;42.668;23.364;2022-12-18T14:51:50;96476.13;;;4.64;100.00
28626;BME280;18905;42.668;23.364;2022-12-18T14:54:18;96458.88;;;4.55;100.00
28626;BME280;18905;42.668;23.364;2022-12-18T14:56:47;96474.00;;;4.44;100.00
28626;BME280;18905;42.668;23.364;2022-12-18T14:59:15;96465.06;;;4.55;100.00